sensor_id;sensor_type;location;lat;lon;timestamp;P1;durP1;ratioP1;P2;durP2;ratioP2
42140;SDS011;27809;51.864;5.646;2022-12-18T00:01:57;38.65;;;12.88;;
42140;SDS011;27809;51.864;5.646;2022-12-18T00:04:24;39.22;;;13.52;;
42140;SDS011;27809;51.864;5.646;2022-12-18T00:06:51;43.88;;;14.20;;
42140;SDS011;27809;51.864;5.646;2022-12-18T00:09:17;39.85;;;13.32;;
42140;SDS011;27809;51.864;5.646;2022-12-18T00:11:43;47.47;;;14.45;;
42140;SDS011;27809;51.864;5.646;2022-12-18T00:14:10;47.90;;;14.32;;
42140;SDS011;27809;51.864;5.646;2022-12-18T00:16:37;42.88;;;13.05;;
42140;SDS011;27809;51.864;5.646;2022-12-18T00:19:03;44.00;;;13.52;;
42140;SDS011;27809;51.864;5.646;2022-12-18T00:21:30;44.53;;;14.52;;
42140;SDS011;27809;51.864;5.646;2022-12-18T00:23:58;41.25;;;14.02;;
42140;SDS011;27809;51.864;5.646;2022-12-18T00:26:25;39.40;;;12.10;;
42140;SDS011;27809;51.864;5.646;2022-12-18T00:29:02;41.95;;;14.43;;
42140;SDS011;27809;51.864;5.646;2022-12-18T00:31:30;37.78;;;12.13;;
42140;SDS011;27809;51.864;5.646;2022-12-18T00:33:56;40.03;;;14.50;;
42140;SDS011;27809;51.864;5.646;2022-12-18T00:36:23;37.53;;;14.48;;
42140;SDS011;27809;51.864;5.646;2022-12-18T00:38:54;41.40;;;13.32;;
42140;SDS011;27809;51.864;5.646;2022-12-18T00:41:20;49.38;;;14.68;;
42140;SDS011;27809;51.864;5.646;2022-12-18T00:44:06;41.70;;;12.57;;
42140;SDS011;27809;51.864;5.646;2022-12-18T00:46:32;45.33;;;15.23;;
42140;SDS011;27809;51.864;5.646;2022-12-18T00:48:58;42.70;;;14.27;;
42140;SDS011;27809;51.864;5.646;2022-12-18T00:51:24;45.03;;;14.13;;
42140;SDS011;27809;51.864;5.646;2022-12-18T00:53:50;37.53;;;12.43;;
42140;SDS011;27809;51.864;5.646;2022-12-18T00:56:15;36.08;;;11.32;;
42140;SDS011;27809;51.864;5.646;2022-12-18T00:58:41;40.08;;;14.45;;
42140;SDS011;27809;51.864;5.646;2022-12-18T01:01:07;41.85;;;13.40;;
42140;SDS011;27809;51.864;5.646;2022-12-18T01:03:33;50.63;;;14.98;;
42140;SDS011;27809;51.864;5.646;2022-12-18T01:05:58;48.80;;;15.48;;
42140;SDS011;27809;51.864;5.646;2022-12-18T01:08:24;34.22;;;12.38;;
42140;SDS011;27809;51.864;5.646;2022-12-18T01:10:49;40.22;;;12.38;;
42140;SDS011;27809;51.864;5.646;2022-12-18T01:13:15;39.60;;;11.82;;
42140;SDS011;27809;51.864;5.646;2022-12-18T01:15:47;42.58;;;14.40;;
42140;SDS011;27809;51.864;5.646;2022-12-18T01:18:14;48.55;;;13.98;;
42140;SDS011;27809;51.864;5.646;2022-12-18T01:20:39;42.53;;;12.30;;
42140;SDS011;27809;51.864;5.646;2022-12-18T01:23:05;29.35;;;12.07;;
42140;SDS011;27809;51.864;5.646;2022-12-18T01:25:30;44.22;;;14.80;;
42140;SDS011;27809;51.864;5.646;2022-12-18T01:27:56;37.45;;;10.93;;
42140;SDS011;27809;51.864;5.646;2022-12-18T01:30:21;46.60;;;14.70;;
42140;SDS011;27809;51.864;5.646;2022-12-18T01:32:47;34.20;;;11.55;;
42140;SDS011;27809;51.864;5.646;2022-12-18T01:35:12;46.83;;;13.30;;
42140;SDS011;27809;51.864;5.646;2022-12-18T01:37:38;35.70;;;12.07;;
42140;SDS011;27809;51.864;5.646;2022-12-18T01:40:04;35.33;;;12.40;;
42140;SDS011;27809;51.864;5.646;2022-12-18T01:42:30;29.42;;;10.68;;
42140;SDS011;27809;51.864;5.646;2022-12-18T01:45:00;37.08;;;11.98;;
42140;SDS011;27809;51.864;5.646;2022-12-18T01:47:44;31.45;;;10.85;;
42140;SDS011;27809;51.864;5.646;2022-12-18T01:52:49;33.15;;;11.30;;
42140;SDS011;27809;51.864;5.646;2022-12-18T01:55:18;35.05;;;11.93;;
42140;SDS011;27809;51.864;5.646;2022-12-18T01:57:47;28.48;;;11.35;;
42140;SDS011;27809;51.864;5.646;2022-12-18T02:00:16;31.50;;;10.98;;
42140;SDS011;27809;51.864;5.646;2022-12-18T02:02:44;34.83;;;11.05;;
42140;SDS011;27809;51.864;5.646;2022-12-18T02:05:11;30.95;;;10.20;;
42140;SDS011;27809;51.864;5.646;2022-12-18T02:07:45;28.48;;;9.27;;
42140;SDS011;27809;51.864;5.646;2022-12-18T02:12:53;25.77;;;9.20;;
42140;SDS011;27809;51.864;5.646;2022-12-18T02:15:51;21.77;;;8.98;;
42140;SDS011;27809;51.864;5.646;2022-12-18T02:18:24;26.58;;;10.65;;
42140;SDS011;27809;51.864;5.646;2022-12-18T02:23:47;26.92;;;11.70;;
42140;SDS011;27809;51.864;5.646;2022-12-18T02:26:36;22.23;;;8.73;;
42140;SDS011;27809;51.864;5.646;2022-12-18T02:29:06;23.48;;;8.73;;
42140;SDS011;27809;51.864;5.646;2022-12-18T02:31:36;19.42;;;9.48;;
42140;SDS011;27809;51.864;5.646;2022-12-18T02:34:07;22.35;;;8.70;;
42140;SDS011;27809;51.864;5.646;2022-12-18T02:36:34;22.48;;;8.93;;
42140;SDS011;27809;51.864;5.646;2022-12-18T02:39:03;26.55;;;9.70;;
42140;SDS011;27809;51.864;5.646;2022-12-18T02:41:30;16.83;;;7.30;;
42140;SDS011;27809;51.864;5.646;2022-12-18T02:43:57;22.20;;;9.25;;
42140;SDS011;27809;51.864;5.646;2022-12-18T02:46:29;26.83;;;9.25;;
42140;SDS011;27809;51.864;5.646;2022-12-18T02:49:47;22.67;;;8.13;;
42140;SDS011;27809;51.864;5.646;2022-12-18T02:51:56;23.65;;;8.23;;
42140;SDS011;27809;51.864;5.646;2022-12-18T02:54:35;20.67;;;8.07;;
42140;SDS011;27809;51.864;5.646;2022-12-18T02:57:32;21.02;;;8.95;;
42140;SDS011;27809;51.864;5.646;2022-12-18T03:00:09;23.77;;;8.18;;
42140;SDS011;27809;51.864;5.646;2022-12-18T03:02:49;22.73;;;7.95;;
42140;SDS011;27809;51.864;5.646;2022-12-18T03:05:20;23.67;;;10.18;;
42140;SDS011;27809;51.864;5.646;2022-12-18T03:07:50;25.27;;;8.27;;
42140;SDS011;27809;51.864;5.646;2022-12-18T03:10:49;21.08;;;8.18;;
42140;SDS011;27809;51.864;5.646;2022-12-18T03:13:26;23.20;;;8.45;;
42140;SDS011;27809;51.864;5.646;2022-12-18T03:16:04;23.42;;;7.30;;
42140;SDS011;27809;51.864;5.646;2022-12-18T03:18:34;30.40;;;8.93;;
42140;SDS011;27809;51.864;5.646;2022-12-18T03:21:04;24.10;;;8.02;;
42140;SDS011;27809;51.864;5.646;2022-12-18T03:23:36;22.85;;;8.18;;
42140;SDS011;27809;51.864;5.646;2022-12-18T03:26:06;14.98;;;7.20;;
42140;SDS011;27809;51.864;5.646;2022-12-18T03:28:36;20.88;;;8.07;;
42140;SDS011;27809;51.864;5.646;2022-12-18T03:31:09;22.25;;;8.48;;
42140;SDS011;27809;51.864;5.646;2022-12-18T03:33:38;25.50;;;9.43;;
42140;SDS011;27809;51.864;5.646;2022-12-18T03:36:15;15.25;;;7.20;;
42140;SDS011;27809;51.864;5.646;2022-12-18T03:38:41;22.48;;;9.32;;
42140;SDS011;27809;51.864;5.646;2022-12-18T03:43:57;19.13;;;6.53;;
42140;SDS011;27809;51.864;5.646;2022-12-18T03:46:40;19.23;;;6.43;;
42140;SDS011;27809;51.864;5.646;2022-12-18T03:49:13;18.33;;;7.78;;
42140;SDS011;27809;51.864;5.646;2022-12-18T03:51:52;20.35;;;7.38;;
42140;SDS011;27809;51.864;5.646;2022-12-18T03:54:30;21.63;;;9.13;;
42140;SDS011;27809;51.864;5.646;2022-12-18T03:57:00;18.15;;;5.97;;
42140;SDS011;27809;51.864;5.646;2022-12-18T03:59:31;18.83;;;8.52;;
42140;SDS011;27809;51.864;5.646;2022-12-18T04:01:59;16.52;;;6.72;;
42140;SDS011;27809;51.864;5.646;2022-12-18T04:04:26;20.77;;;7.82;;
42140;SDS011;27809;51.864;5.646;2022-12-18T04:06:53;25.55;;;8.52;;
42140;SDS011;27809;51.864;5.646;2022-12-18T04:09:20;16.67;;;6.10;;
42140;SDS011;27809;51.864;5.646;2022-12-18T04:11:46;25.27;;;7.95;;
42140;SDS011;27809;51.864;5.646;2022-12-18T04:14:12;20.85;;;8.13;;
42140;SDS011;27809;51.864;5.646;2022-12-18T04:16:39;17.95;;;6.60;;
42140;SDS011;27809;51.864;5.646;2022-12-18T04:19:04;17.63;;;6.28;;
42140;SDS011;27809;51.864;5.646;2022-12-18T04:21:30;15.80;;;6.32;;
42140;SDS011;27809;51.864;5.646;2022-12-18T04:23:56;11.57;;;6.13;;
42140;SDS011;27809;51.864;5.646;2022-12-18T04:26:21;22.63;;;7.07;;
42140;SDS011;27809;51.864;5.646;2022-12-18T04:28:47;21.77;;;7.18;;
42140;SDS011;27809;51.864;5.646;2022-12-18T04:31:13;17.63;;;5.55;;
42140;SDS011;27809;51.864;5.646;2022-12-18T04:33:38;15.23;;;6.93;;
42140;SDS011;27809;51.864;5.646;2022-12-18T04:36:04;15.45;;;5.68;;
42140;SDS011;27809;51.864;5.646;2022-12-18T04:38:30;18.92;;;7.03;;
42140;SDS011;27809;51.864;5.646;2022-12-18T04:40:55;14.25;;;7.03;;
42140;SDS011;27809;51.864;5.646;2022-12-18T04:43:21;14.65;;;6.13;;
42140;SDS011;27809;51.864;5.646;2022-12-18T04:45:46;16.30;;;5.65;;
42140;SDS011;27809;51.864;5.646;2022-12-18T04:48:12;21.20;;;5.70;;
42140;SDS011;27809;51.864;5.646;2022-12-18T04:50:37;10.02;;;5.82;;
42140;SDS011;27809;51.864;5.646;2022-12-18T04:53:03;13.18;;;6.03;;
42140;SDS011;27809;51.864;5.646;2022-12-18T04:55:29;12.30;;;5.18;;
42140;SDS011;27809;51.864;5.646;2022-12-18T04:57:54;14.02;;;6.30;;
42140;SDS011;27809;51.864;5.646;2022-12-18T05:00:20;18.90;;;6.90;;
42140;SDS011;27809;51.864;5.646;2022-12-18T05:02:45;20.30;;;6.05;;
42140;SDS011;27809;51.864;5.646;2022-12-18T05:05:11;14.50;;;6.07;;
42140;SDS011;27809;51.864;5.646;2022-12-18T05:07:37;17.20;;;5.63;;
42140;SDS011;27809;51.864;5.646;2022-12-18T05:10:02;13.65;;;5.18;;
42140;SDS011;27809;51.864;5.646;2022-12-18T05:12:31;12.80;;;4.43;;
42140;SDS011;27809;51.864;5.646;2022-12-18T05:14:57;11.63;;;4.95;;
42140;SDS011;27809;51.864;5.646;2022-12-18T05:17:22;13.25;;;5.85;;
42140;SDS011;27809;51.864;5.646;2022-12-18T05:19:48;12.50;;;4.90;;
42140;SDS011;27809;51.864;5.646;2022-12-18T05:22:13;12.70;;;4.63;;
42140;SDS011;27809;51.864;5.646;2022-12-18T05:24:39;17.65;;;5.57;;
42140;SDS011;27809;51.864;5.646;2022-12-18T05:27:04;16.92;;;5.35;;
42140;SDS011;27809;51.864;5.646;2022-12-18T05:29:30;12.65;;;5.05;;
42140;SDS011;27809;51.864;5.646;2022-12-18T05:31:55;13.73;;;5.78;;
42140;SDS011;27809;51.864;5.646;2022-12-18T05:34:21;17.13;;;5.53;;
42140;SDS011;27809;51.864;5.646;2022-12-18T05:36:46;10.18;;;5.00;;
42140;SDS011;27809;51.864;5.646;2022-12-18T05:39:12;15.60;;;4.95;;
42140;SDS011;27809;51.864;5.646;2022-12-18T05:41:38;16.23;;;6.40;;
42140;SDS011;27809;51.864;5.646;2022-12-18T05:44:03;9.18;;;4.25;;
42140;SDS011;27809;51.864;5.646;2022-12-18T05:46:29;12.52;;;4.50;;
42140;SDS011;27809;51.864;5.646;2022-12-18T05:48:54;16.40;;;5.95;;
42140;SDS011;27809;51.864;5.646;2022-12-18T05:51:21;13.25;;;5.07;;
42140;SDS011;27809;51.864;5.646;2022-12-18T05:53:47;12.57;;;5.35;;
42140;SDS011;27809;51.864;5.646;2022-12-18T05:56:16;12.27;;;5.10;;
42140;SDS011;27809;51.864;5.646;2022-12-18T05:58:44;11.20;;;4.35;;
42140;SDS011;27809;51.864;5.646;2022-12-18T06:01:14;12.88;;;5.82;;
42140;SDS011;27809;51.864;5.646;2022-12-18T06:03:41;15.05;;;6.25;;
42140;SDS011;27809;51.864;5.646;2022-12-18T06:06:14;16.10;;;4.65;;
42140;SDS011;27809;51.864;5.646;2022-12-18T06:08:45;13.90;;;5.45;;
42140;SDS011;27809;51.864;5.646;2022-12-18T06:11:11;16.17;;;6.50;;
42140;SDS011;27809;51.864;5.646;2022-12-18T06:13:37;14.65;;;5.65;;
42140;SDS011;27809;51.864;5.646;2022-12-18T06:16:03;16.58;;;5.95;;
42140;SDS011;27809;51.864;5.646;2022-12-18T06:18:30;15.85;;;6.55;;
42140;SDS011;27809;51.864;5.646;2022-12-18T06:20:56;11.85;;;4.65;;
42140;SDS011;27809;51.864;5.646;2022-12-18T06:23:23;16.42;;;6.80;;
42140;SDS011;27809;51.864;5.646;2022-12-18T06:25:48;21.60;;;7.68;;
42140;SDS011;27809;51.864;5.646;2022-12-18T06:28:14;19.27;;;5.90;;
42140;SDS011;27809;51.864;5.646;2022-12-18T06:30:39;17.70;;;7.15;;
42140;SDS011;27809;51.864;5.646;2022-12-18T06:33:07;18.13;;;6.20;;
42140;SDS011;27809;51.864;5.646;2022-12-18T06:35:33;15.20;;;6.22;;
42140;SDS011;27809;51.864;5.646;2022-12-18T06:38:00;15.48;;;6.60;;
42140;SDS011;27809;51.864;5.646;2022-12-18T06:40:26;15.38;;;6.45;;
42140;SDS011;27809;51.864;5.646;2022-12-18T06:42:52;15.98;;;5.60;;
42140;SDS011;27809;51.864;5.646;2022-12-18T06:45:17;13.98;;;5.47;;
42140;SDS011;27809;51.864;5.646;2022-12-18T06:47:43;12.27;;;5.07;;
42140;SDS011;27809;51.864;5.646;2022-12-18T06:50:08;15.10;;;6.47;;
42140;SDS011;27809;51.864;5.646;2022-12-18T06:52:34;13.05;;;4.95;;
42140;SDS011;27809;51.864;5.646;2022-12-18T06:55:00;13.32;;;4.80;;
42140;SDS011;27809;51.864;5.646;2022-12-18T06:57:25;13.02;;;5.00;;
42140;SDS011;27809;51.864;5.646;2022-12-18T06:59:51;18.50;;;4.65;;
42140;SDS011;27809;51.864;5.646;2022-12-18T07:02:16;12.05;;;5.72;;
42140;SDS011;27809;51.864;5.646;2022-12-18T07:04:42;16.92;;;5.05;;
42140;SDS011;27809;51.864;5.646;2022-12-18T07:07:07;10.98;;;3.72;;
42140;SDS011;27809;51.864;5.646;2022-12-18T07:09:33;13.63;;;5.22;;
42140;SDS011;27809;51.864;5.646;2022-12-18T07:11:59;17.27;;;5.53;;
42140;SDS011;27809;51.864;5.646;2022-12-18T07:14:24;14.85;;;5.93;;
42140;SDS011;27809;51.864;5.646;2022-12-18T07:16:50;14.23;;;5.95;;
42140;SDS011;27809;51.864;5.646;2022-12-18T07:19:15;14.35;;;4.97;;
42140;SDS011;27809;51.864;5.646;2022-12-18T07:21:41;13.05;;;5.40;;
42140;SDS011;27809;51.864;5.646;2022-12-18T07:24:06;12.38;;;4.75;;
42140;SDS011;27809;51.864;5.646;2022-12-18T07:26:32;12.73;;;4.82;;
42140;SDS011;27809;51.864;5.646;2022-12-18T07:28:58;12.48;;;5.78;;
42140;SDS011;27809;51.864;5.646;2022-12-18T07:31:24;14.45;;;6.00;;
42140;SDS011;27809;51.864;5.646;2022-12-18T07:33:50;18.35;;;5.65;;
42140;SDS011;27809;51.864;5.646;2022-12-18T07:36:16;13.82;;;4.85;;
42140;SDS011;27809;51.864;5.646;2022-12-18T07:38:42;15.25;;;4.97;;
42140;SDS011;27809;51.864;5.646;2022-12-18T07:41:11;16.70;;;4.97;;
42140;SDS011;27809;51.864;5.646;2022-12-18T07:43:38;15.20;;;4.97;;
42140;SDS011;27809;51.864;5.646;2022-12-18T07:46:05;17.50;;;5.25;;
42140;SDS011;27809;51.864;5.646;2022-12-18T07:48:31;12.48;;;5.18;;
42140;SDS011;27809;51.864;5.646;2022-12-18T07:51:04;13.20;;;4.88;;
42140;SDS011;27809;51.864;5.646;2022-12-18T07:53:31;17.52;;;5.50;;
42140;SDS011;27809;51.864;5.646;2022-12-18T07:56:02;20.58;;;8.98;;
42140;SDS011;27809;51.864;5.646;2022-12-18T07:58:30;12.52;;;4.75;;
42140;SDS011;27809;51.864;5.646;2022-12-18T08:01:08;16.42;;;4.60;;
42140;SDS011;27809;51.864;5.646;2022-12-18T08:03:35;18.02;;;5.63;;
42140;SDS011;27809;51.864;5.646;2022-12-18T08:06:01;17.48;;;5.10;;
42140;SDS011;27809;51.864;5.646;2022-12-18T08:08:29;13.02;;;6.30;;
42140;SDS011;27809;51.864;5.646;2022-12-18T08:10:55;10.43;;;4.47;;
42140;SDS011;27809;51.864;5.646;2022-12-18T08:13:22;13.18;;;6.65;;
42140;SDS011;27809;51.864;5.646;2022-12-18T08:15:55;10.68;;;4.20;;
42140;SDS011;27809;51.864;5.646;2022-12-18T08:18:24;16.05;;;5.95;;
42140;SDS011;27809;51.864;5.646;2022-12-18T08:20:50;12.00;;;5.07;;
42140;SDS011;27809;51.864;5.646;2022-12-18T08:23:15;5.22;;;1.75;;
42140;SDS011;27809;51.864;5.646;2022-12-18T08:25:41;3.70;;;1.38;;
42140;SDS011;27809;51.864;5.646;2022-12-18T08:28:06;10.30;;;4.68;;
42140;SDS011;27809;51.864;5.646;2022-12-18T08:30:32;11.60;;;4.90;;
42140;SDS011;27809;51.864;5.646;2022-12-18T08:32:57;11.35;;;5.25;;
42140;SDS011;27809;51.864;5.646;2022-12-18T08:35:23;16.42;;;6.43;;
42140;SDS011;27809;51.864;5.646;2022-12-18T08:37:48;12.73;;;6.20;;
42140;SDS011;27809;51.864;5.646;2022-12-18T08:40:14;17.05;;;4.70;;
42140;SDS011;27809;51.864;5.646;2022-12-18T08:42:40;11.45;;;5.65;;
42140;SDS011;27809;51.864;5.646;2022-12-18T08:45:24;9.50;;;4.28;;
42140;SDS011;27809;51.864;5.646;2022-12-18T08:47:49;14.05;;;5.35;;
42140;SDS011;27809;51.864;5.646;2022-12-18T08:50:15;14.20;;;5.78;;
42140;SDS011;27809;51.864;5.646;2022-12-18T08:52:40;14.25;;;5.25;;
42140;SDS011;27809;51.864;5.646;2022-12-18T08:55:06;10.82;;;5.20;;
42140;SDS011;27809;51.864;5.646;2022-12-18T08:57:33;11.65;;;5.85;;
42140;SDS011;27809;51.864;5.646;2022-12-18T08:59:58;12.52;;;5.43;;
42140;SDS011;27809;51.864;5.646;2022-12-18T09:02:24;12.82;;;4.97;;
42140;SDS011;27809;51.864;5.646;2022-12-18T09:04:49;10.55;;;4.07;;
42140;SDS011;27809;51.864;5.646;2022-12-18T09:07:15;10.02;;;4.65;;
42140;SDS011;27809;51.864;5.646;2022-12-18T09:09:40;15.07;;;4.85;;
42140;SDS011;27809;51.864;5.646;2022-12-18T09:12:06;14.95;;;5.70;;
42140;SDS011;27809;51.864;5.646;2022-12-18T09:14:31;13.27;;;6.35;;
42140;SDS011;27809;51.864;5.646;2022-12-18T09:16:57;13.02;;;4.80;;
42140;SDS011;27809;51.864;5.646;2022-12-18T09:19:22;15.95;;;6.43;;
42140;SDS011;27809;51.864;5.646;2022-12-18T09:21:48;10.52;;;4.93;;
42140;SDS011;27809;51.864;5.646;2022-12-18T09:24:13;14.32;;;5.25;;
42140;SDS011;27809;51.864;5.646;2022-12-18T09:26:40;7.95;;;4.15;;
42140;SDS011;27809;51.864;5.646;2022-12-18T09:29:06;13.57;;;5.20;;
42140;SDS011;27809;51.864;5.646;2022-12-18T09:31:35;13.07;;;6.53;;
42140;SDS011;27809;51.864;5.646;2022-12-18T09:34:01;13.63;;;5.15;;
42140;SDS011;27809;51.864;5.646;2022-12-18T09:36:26;13.27;;;6.20;;
42140;SDS011;27809;51.864;5.646;2022-12-18T09:38:52;13.07;;;5.63;;
42140;SDS011;27809;51.864;5.646;2022-12-18T09:44:00;11.02;;;4.43;;
42140;SDS011;27809;51.864;5.646;2022-12-18T09:46:30;11.02;;;4.32;;
42140;SDS011;27809;51.864;5.646;2022-12-18T09:49:00;11.60;;;5.93;;
42140;SDS011;27809;51.864;5.646;2022-12-18T09:51:32;10.32;;;4.15;;
42140;SDS011;27809;51.864;5.646;2022-12-18T09:54:05;11.35;;;4.80;;
42140;SDS011;27809;51.864;5.646;2022-12-18T09:56:37;9.80;;;3.72;;
42140;SDS011;27809;51.864;5.646;2022-12-18T09:59:09;13.80;;;4.75;;
42140;SDS011;27809;51.864;5.646;2022-12-18T10:01:50;10.32;;;5.35;;
42140;SDS011;27809;51.864;5.646;2022-12-18T10:04:15;17.95;;;5.55;;
42140;SDS011;27809;51.864;5.646;2022-12-18T10:09:20;15.90;;;6.57;;
42140;SDS011;27809;51.864;5.646;2022-12-18T10:20:49;12.65;;;6.38;;
42140;SDS011;27809;51.864;5.646;2022-12-18T10:23:22;9.45;;;4.38;;
42140;SDS011;27809;51.864;5.646;2022-12-18T10:26:09;11.60;;;5.97;;
42140;SDS011;27809;51.864;5.646;2022-12-18T10:28:39;9.80;;;4.32;;
42140;SDS011;27809;51.864;5.646;2022-12-18T10:31:06;10.43;;;5.15;;
42140;SDS011;27809;51.864;5.646;2022-12-18T10:33:32;16.27;;;7.43;;
42140;SDS011;27809;51.864;5.646;2022-12-18T10:35:58;13.80;;;5.00;;
42140;SDS011;27809;51.864;5.646;2022-12-18T10:38:28;15.18;;;6.32;;
42140;SDS011;27809;51.864;5.646;2022-12-18T10:46:00;16.75;;;5.38;;
42140;SDS011;27809;51.864;5.646;2022-12-18T10:48:33;11.55;;;5.70;;
42140;SDS011;27809;51.864;5.646;2022-12-18T10:51:01;14.75;;;5.20;;
42140;SDS011;27809;51.864;5.646;2022-12-18T10:53:29;10.93;;;4.78;;
42140;SDS011;27809;51.864;5.646;2022-12-18T10:55:56;10.15;;;4.82;;
42140;SDS011;27809;51.864;5.646;2022-12-18T10:58:30;10.57;;;5.40;;
42140;SDS011;27809;51.864;5.646;2022-12-18T11:01:03;13.07;;;5.45;;
42140;SDS011;27809;51.864;5.646;2022-12-18T11:03:44;9.50;;;4.65;;
42140;SDS011;27809;51.864;5.646;2022-12-18T11:06:23;11.27;;;4.63;;
42140;SDS011;27809;51.864;5.646;2022-12-18T11:09:06;7.53;;;3.92;;
42140;SDS011;27809;51.864;5.646;2022-12-18T11:11:51;8.80;;;3.78;;
42140;SDS011;27809;51.864;5.646;2022-12-18T11:14:26;10.38;;;4.50;;
42140;SDS011;27809;51.864;5.646;2022-12-18T11:16:53;13.75;;;4.40;;
42140;SDS011;27809;51.864;5.646;2022-12-18T11:19:31;8.95;;;4.60;;
42140;SDS011;27809;51.864;5.646;2022-12-18T11:21:59;10.10;;;5.13;;
42140;SDS011;27809;51.864;5.646;2022-12-18T11:24:28;11.77;;;5.22;;
42140;SDS011;27809;51.864;5.646;2022-12-18T11:27:00;13.02;;;5.22;;
42140;SDS011;27809;51.864;5.646;2022-12-18T11:29:35;10.85;;;5.35;;
42140;SDS011;27809;51.864;5.646;2022-12-18T11:34:41;10.77;;;4.22;;
42140;SDS011;27809;51.864;5.646;2022-12-18T11:37:10;14.95;;;5.10;;
42140;SDS011;27809;51.864;5.646;2022-12-18T11:39:42;9.88;;;4.22;;
42140;SDS011;27809;51.864;5.646;2022-12-18T11:42:54;10.52;;;5.57;;
42140;SDS011;27809;51.864;5.646;2022-12-18T11:45:25;12.48;;;6.05;;
42140;SDS011;27809;51.864;5.646;2022-12-18T11:47:58;11.48;;;5.97;;
42140;SDS011;27809;51.864;5.646;2022-12-18T11:50:43;13.32;;;4.15;;
42140;SDS011;27809;51.864;5.646;2022-12-18T11:53:16;14.98;;;4.88;;
42140;SDS011;27809;51.864;5.646;2022-12-18T12:12:38;11.55;;;5.80;;
42140;SDS011;27809;51.864;5.646;2022-12-18T12:25:52;10.25;;;4.53;;
42140;SDS011;27809;51.864;5.646;2022-12-18T12:39:18;13.07;;;6.40;;
42140;SDS011;27809;51.864;5.646;2022-12-18T12:41:48;14.50;;;6.97;;
42140;SDS011;27809;51.864;5.646;2022-12-18T12:44:40;11.27;;;5.18;;
42140;SDS011;27809;51.864;5.646;2022-12-18T12:47:16;15.55;;;6.60;;
42140;SDS011;27809;51.864;5.646;2022-12-18T12:49:45;14.40;;;6.07;;
42140;SDS011;27809;51.864;5.646;2022-12-18T12:52:14;12.35;;;4.65;;
42140;SDS011;27809;51.864;5.646;2022-12-18T12:54:56;16.67;;;5.55;;
42140;SDS011;27809;51.864;5.646;2022-12-18T12:57:34;17.42;;;5.82;;
42140;SDS011;27809;51.864;5.646;2022-12-18T13:02:33;13.27;;;5.95;;
42140;SDS011;27809;51.864;5.646;2022-12-18T13:08:12;15.55;;;6.53;;
42140;SDS011;27809;51.864;5.646;2022-12-18T13:11:12;15.25;;;5.13;;
42140;SDS011;27809;51.864;5.646;2022-12-18T13:14:26;17.33;;;7.68;;
42140;SDS011;27809;51.864;5.646;2022-12-18T13:20:09;11.82;;;5.55;;
42140;SDS011;27809;51.864;5.646;2022-12-18T13:22:38;11.60;;;4.25;;
42140;SDS011;27809;51.864;5.646;2022-12-18T13:28:02;12.38;;;5.72;;
42140;SDS011;27809;51.864;5.646;2022-12-18T13:36:23;19.90;;;6.38;;
42140;SDS011;27809;51.864;5.646;2022-12-18T13:38:46;12.18;;;5.30;;
42140;SDS011;27809;51.864;5.646;2022-12-18T13:51:42;11.30;;;5.93;;
42140;SDS011;27809;51.864;5.646;2022-12-18T13:56:58;11.60;;;5.22;;
42140;SDS011;27809;51.864;5.646;2022-12-18T13:59:25;15.23;;;5.53;;
42140;SDS011;27809;51.864;5.646;2022-12-18T14:02:07;14.38;;;5.32;;
42140;SDS011;27809;51.864;5.646;2022-12-18T14:04:39;14.52;;;7.25;;
42140;SDS011;27809;51.864;5.646;2022-12-18T14:07:05;12.57;;;5.28;;
42140;SDS011;27809;51.864;5.646;2022-12-18T14:09:37;12.13;;;5.68;;
42140;SDS011;27809;51.864;5.646;2022-12-18T14:12:18;12.25;;;5.95;;
42140;SDS011;27809;51.864;5.646;2022-12-18T14:15:17;12.05;;;5.68;;
42140;SDS011;27809;51.864;5.646;2022-12-18T14:17:57;15.60;;;7.22;;
42140;SDS011;27809;51.864;5.646;2022-12-18T14:20:25;15.32;;;7.65;;
42140;SDS011;27809;51.864;5.646;2022-12-18T14:22:52;10.48;;;4.97;;
42140;SDS011;27809;51.864;5.646;2022-12-18T14:25:20;10.95;;;5.20;;
42140;SDS011;27809;51.864;5.646;2022-12-18T14:30:30;13.52;;;5.72;;
42140;SDS011;27809;51.864;5.646;2022-12-18T14:33:04;13.68;;;6.55;;
42140;SDS011;27809;51.864;5.646;2022-12-18T14:35:34;15.88;;;7.35;;
42140;SDS011;27809;51.864;5.646;2022-12-18T14:40:41;11.43;;;6.63;;
42140;SDS011;27809;51.864;5.646;2022-12-18T14:43:11;19.20;;;7.07;;
42140;SDS011;27809;51.864;5.646;2022-12-18T14:45:43;17.15;;;7.60;;
42140;SDS011;27809;51.864;5.646;2022-12-18T14:48:15;12.98;;;6.85;;
42140;SDS011;27809;51.864;5.646;2022-12-18T14:50:44;14.35;;;6.38;;
42140;SDS011;27809;51.864;5.646;2022-12-18T14:53:20;11.55;;;6.32;;
42140;SDS011;27809;51.864;5.646;2022-12-18T14:55:50;12.30;;;5.80;;
42140;SDS011;27809;51.864;5.646;2022-12-18T14:58:16;14.77;;;6.32;;
42140;SDS011;27809;51.864;5.646;2022-12-18T15:00:42;22.17;;;7.00;;
42140;SDS011;27809;51.864;5.646;2022-12-18T15:03:08;18.48;;;6.30;;
42140;SDS011;27809;51.864;5.646;2022-12-18T15:05:35;15.63;;;6.93;;
42140;SDS011;27809;51.864;5.646;2022-12-18T15:08:01;13.82;;;5.28;;
42140;SDS011;27809;51.864;5.646;2022-12-18T15:10:28;21.50;;;7.57;;
42140;SDS011;27809;51.864;5.646;2022-12-18T15:20:33;14.38;;;6.95;;
42140;SDS011;27809;51.864;5.646;2022-12-18T15:23:19;15.15;;;7.05;;
42140;SDS011;27809;51.864;5.646;2022-12-18T15:25:48;17.35;;;6.72;;
42140;SDS011;27809;51.864;5.646;2022-12-18T15:28:24;16.30;;;6.65;;
42140;SDS011;27809;51.864;5.646;2022-12-18T15:31:04;16.25;;;6.80;;
42140;SDS011;27809;51.864;5.646;2022-12-18T15:36:20;19.90;;;6.97;;
42140;SDS011;27809;51.864;5.646;2022-12-18T15:38:52;15.90;;;7.18;;
42140;SDS011;27809;51.864;5.646;2022-12-18T15:41:20;20.05;;;6.65;;
42140;SDS011;27809;51.864;5.646;2022-12-18T15:43:50;19.98;;;8.40;;
42140;SDS011;27809;51.864;5.646;2022-12-18T15:46:21;12.48;;;6.13;;
42140;SDS011;27809;51.864;5.646;2022-12-18T15:48:51;18.45;;;6.93;;
42140;SDS011;27809;51.864;5.646;2022-12-18T15:51:21;14.57;;;6.32;;
42140;SDS011;27809;51.864;5.646;2022-12-18T15:53:59;15.32;;;6.15;;
42140;SDS011;27809;51.864;5.646;2022-12-18T15:56:28;20.60;;;8.32;;
42140;SDS011;27809;51.864;5.646;2022-12-18T15:59:13;18.75;;;7.35;;
42140;SDS011;27809;51.864;5.646;2022-12-18T16:01:41;11.82;;;6.47;;
42140;SDS011;27809;51.864;5.646;2022-12-18T16:04:13;21.90;;;9.85;;
42140;SDS011;27809;51.864;5.646;2022-12-18T16:06:40;24.45;;;9.68;;
42140;SDS011;27809;51.864;5.646;2022-12-18T16:09:06;20.00;;;8.07;;
42140;SDS011;27809;51.864;5.646;2022-12-18T16:11:33;15.48;;;7.30;;
42140;SDS011;27809;51.864;5.646;2022-12-18T16:14:15;23.27;;;8.13;;
42140;SDS011;27809;51.864;5.646;2022-12-18T16:16:43;15.95;;;7.07;;
42140;SDS011;27809;51.864;5.646;2022-12-18T16:19:14;18.52;;;7.55;;
42140;SDS011;27809;51.864;5.646;2022-12-18T16:21:40;17.85;;;8.00;;
42140;SDS011;27809;51.864;5.646;2022-12-18T16:24:05;19.75;;;8.13;;
42140;SDS011;27809;51.864;5.646;2022-12-18T16:26:37;17.15;;;7.75;;
42140;SDS011;27809;51.864;5.646;2022-12-18T16:29:03;19.48;;;7.45;;
42140;SDS011;27809;51.864;5.646;2022-12-18T16:31:28;18.48;;;7.75;;
42140;SDS011;27809;51.864;5.646;2022-12-18T16:34:10;15.85;;;6.57;;
42140;SDS011;27809;51.864;5.646;2022-12-18T16:36:38;25.05;;;9.52;;
42140;SDS011;27809;51.864;5.646;2022-12-18T16:39:04;19.08;;;7.97;;
42140;SDS011;27809;51.864;5.646;2022-12-18T16:41:29;15.93;;;8.32;;
42140;SDS011;27809;51.864;5.646;2022-12-18T16:43:58;19.95;;;8.02;;
42140;SDS011;27809;51.864;5.646;2022-12-18T16:46:25;16.83;;;8.65;;